createdAt,value
2023-04-17T00:01:47.706Z,36.82
2023-04-17T00:04:14.268Z,36.86
2023-04-17T00:06:43.181Z,36.84
2023-04-17T00:09:09.653Z,36.72
2023-04-17T00:11:36.146Z,36.76
2023-04-17T00:14:02.441Z,36.67
2023-04-17T00:16:28.787Z,36.71
2023-04-17T00:18:55.102Z,36.86
2023-04-17T00:21:21.380Z,36.81
2023-04-17T00:23:47.677Z,36.71
2023-04-17T00:26:13.950Z,36.57
2023-04-17T00:28:40.266Z,36.78
2023-04-17T00:31:06.565Z,36.71
2023-04-17T00:33:32.889Z,36.63
2023-04-17T00:35:59.273Z,36.64
2023-04-17T00:38:26.058Z,36.63
2023-04-17T00:40:52.339Z,36.71
2023-04-17T00:43:18.650Z,36.58
2023-04-17T00:45:46.131Z,36.70
2023-04-17T00:48:13.317Z,36.84
2023-04-17T00:50:39.622Z,36.54
2023-04-17T00:53:06.092Z,36.58
2023-04-17T00:55:32.414Z,36.51
2023-04-17T00:57:58.761Z,36.47
2023-04-17T01:00:25.147Z,36.69
2023-04-17T01:02:51.774Z,36.52
2023-04-17T01:05:18.200Z,36.38
2023-04-17T01:07:44.480Z,36.53
2023-04-17T01:10:10.783Z,36.54
2023-04-17T01:12:37.130Z,36.65
2023-04-17T01:15:03.502Z,36.42
2023-04-17T01:17:29.824Z,36.55
2023-04-17T01:19:56.564Z,36.45
2023-04-17T01:22:22.865Z,36.54
2023-04-17T01:24:49.164Z,36.70
2023-04-17T01:27:15.704Z,36.47
2023-04-17T01:29:42.113Z,36.51
2023-04-17T01:32:08.401Z,36.39
2023-04-17T01:34:37.215Z,36.47
2023-04-17T01:37:03.819Z,36.48
2023-04-17T01:39:30.114Z,36.36
2023-04-17T01:41:56.475Z,36.56
2023-04-17T01:44:22.755Z,36.22
2023-04-17T01:46:49.034Z,36.30
2023-04-17T01:49:15.365Z,36.42
2023-04-17T01:51:41.693Z,36.44
2023-04-17T01:54:08.029Z,36.46
2023-04-17T01:56:34.317Z,36.33
2023-04-17T01:59:00.607Z,36.34
2023-04-17T02:01:26.923Z,36.32
2023-04-17T02:03:53.434Z,36.34
2023-04-17T02:06:19.833Z,36.20
2023-04-17T02:08:46.126Z,36.15
2023-04-17T02:11:13.507Z,36.25
2023-04-17T02:13:39.852Z,35.96
2023-04-17T02:16:07.433Z,35.83
2023-04-17T02:18:33.816Z,35.63
2023-04-17T02:21:00.239Z,35.55
2023-04-17T02:23:26.549Z,35.50
2023-04-17T02:25:52.831Z,35.44
2023-04-17T02:28:19.165Z,35.44
2023-04-17T02:30:45.766Z,35.57
2023-04-17T02:33:12.060Z,35.45
2023-04-17T02:35:38.344Z,35.60
2023-04-17T02:38:04.992Z,35.59
2023-04-17T02:40:31.281Z,35.72
2023-04-17T02:42:57.580Z,35.70
2023-04-17T02:45:23.875Z,35.55
2023-04-17T02:47:50.285Z,35.46
2023-04-17T02:50:18.345Z,35.40
2023-04-17T02:52:44.676Z,35.07
2023-04-17T02:55:11.013Z,35.21
2023-04-17T02:57:37.341Z,35.18
2023-04-17T03:00:07.907Z,35.11
2023-04-17T03:02:34.338Z,35.08
2023-04-17T03:05:02.129Z,35.08
2023-04-17T03:07:28.492Z,35.06
2023-04-17T03:09:57.493Z,35.47
2023-04-17T03:12:23.858Z,35.06
2023-04-17T03:14:50.169Z,35.15
2023-04-17T03:17:16.547Z,35.37
2023-04-17T03:19:42.865Z,35.37
2023-04-17T03:22:10.044Z,35.20
2023-04-17T03:24:37.668Z,35.06
2023-04-17T03:27:04.050Z,35.09
2023-04-17T03:29:30.445Z,34.95
2023-04-17T03:31:56.861Z,35.13
2023-04-17T03:34:23.388Z,35.00
2023-04-17T03:36:49.690Z,35.02
2023-04-17T03:39:16.259Z,35.07
2023-04-17T03:41:42.624Z,35.25
2023-04-17T03:44:09.119Z,35.01
2023-04-17T03:46:35.565Z,35.26
2023-04-17T03:49:01.896Z,35.00
2023-04-17T03:51:28.580Z,35.12
2023-04-17T03:53:54.922Z,34.95
2023-04-17T03:56:21.853Z,34.71
2023-04-17T03:58:48.244Z,34.91
2023-04-17T04:01:14.736Z,34.78
2023-04-17T04:03:41.446Z,34.77
2023-04-17T04:06:08.018Z,34.92
2023-04-17T04:08:34.455Z,34.85
2023-04-17T04:11:01.284Z,34.92
2023-04-17T04:13:27.640Z,34.84
2023-04-17T04:15:54.017Z,34.93
2023-04-17T04:18:20.427Z,34.93
2023-04-17T04:20:46.740Z,34.79
2023-04-17T04:23:13.234Z,34.70
2023-04-17T04:25:41.833Z,34.76
2023-04-17T04:28:08.176Z,34.74
2023-04-17T04:30:38.542Z,34.68
2023-04-17T04:33:05.662Z,34.91
2023-04-17T04:35:32.178Z,34.87
2023-04-17T04:38:02.248Z,34.89
2023-04-17T04:40:30.579Z,34.78
2023-04-17T04:42:57.061Z,34.94
2023-04-17T04:45:23.411Z,34.94
2023-04-17T04:47:49.876Z,34.90
2023-04-17T04:50:16.452Z,34.76
2023-04-17T04:52:42.841Z,35.20
2023-04-17T04:55:09.155Z,35.21
2023-04-17T04:57:36.337Z,34.87
2023-04-17T05:00:04.005Z,34.79
2023-04-17T05:02:30.529Z,34.75
2023-04-17T05:04:58.054Z,34.83
2023-04-17T05:07:24.433Z,34.59
2023-04-17T05:09:50.748Z,34.45
2023-04-17T05:12:17.067Z,34.58
2023-04-17T05:14:43.469Z,34.60
2023-04-17T05:17:09.789Z,34.60
2023-04-17T05:19:36.127Z,34.51
2023-04-17T05:22:02.433Z,34.55
2023-04-17T05:24:28.782Z,34.55
2023-04-17T05:26:55.175Z,34.38
2023-04-17T05:29:21.483Z,34.25
2023-04-17T05:31:47.836Z,34.21
2023-04-17T05:34:14.186Z,34.42
2023-04-17T05:36:40.508Z,34.38
2023-04-17T05:39:06.835Z,34.40
2023-04-17T05:41:33.252Z,34.54
2023-04-17T05:43:59.586Z,34.63
2023-04-17T05:46:26.009Z,34.72
2023-04-17T05:48:52.385Z,34.82
2023-04-17T05:51:18.701Z,34.87
2023-04-17T05:53:45.284Z,34.85
2023-04-17T05:56:11.633Z,34.79
2023-04-17T05:58:38.426Z,34.91
2023-04-17T06:01:06.244Z,34.77
2023-04-17T06:03:33.171Z,34.66
2023-04-17T06:05:59.905Z,34.73
2023-04-17T06:08:27.992Z,34.37
2023-04-17T06:10:55.941Z,34.47
2023-04-17T06:13:23.355Z,34.59
2023-04-17T06:15:49.938Z,34.63
2023-04-17T06:18:17.525Z,34.44
2023-04-17T06:20:44.408Z,34.79
2023-04-17T06:23:11.025Z,34.97
2023-04-17T06:25:37.355Z,34.79
2023-04-17T06:28:03.867Z,34.99
2023-04-17T06:30:30.196Z,34.78
2023-04-17T06:32:56.599Z,34.46
2023-04-17T06:35:22.944Z,34.48
2023-04-17T06:37:49.281Z,34.37
2023-04-17T06:40:15.695Z,34.29
2023-04-17T06:42:42.094Z,34.25
2023-04-17T06:45:08.529Z,34.39
2023-04-17T06:47:34.944Z,34.31
2023-04-17T06:50:01.699Z,34.56
2023-04-17T06:52:28.040Z,34.52
2023-04-17T06:54:54.506Z,34.49
2023-04-17T06:57:22.100Z,34.46
2023-04-17T06:59:48.550Z,34.46
2023-04-17T07:02:15.031Z,34.76
2023-04-17T07:04:41.810Z,34.84
2023-04-17T07:07:08.237Z,34.73
2023-04-17T07:09:34.570Z,34.75
2023-04-17T07:12:00.907Z,34.68
2023-04-17T07:14:27.409Z,34.65
2023-04-17T07:16:53.803Z,34.74
2023-04-17T07:19:20.261Z,34.53
2023-04-17T07:21:46.591Z,34.49
2023-04-17T07:24:12.948Z,34.39
2023-04-17T07:26:40.404Z,34.69
2023-04-17T07:29:06.788Z,34.39
2023-04-17T07:31:33.282Z,34.40
2023-04-17T07:34:00.566Z,34.22
2023-04-17T07:36:28.618Z,34.31
2023-04-17T07:38:54.972Z,34.59
2023-04-17T07:41:21.292Z,34.28
2023-04-17T07:43:47.625Z,34.41
2023-04-17T07:46:14.237Z,34.09
2023-04-17T07:48:40.649Z,33.92
2023-04-17T07:51:07.704Z,34.07
2023-04-17T07:56:02.274Z,34.01
2023-04-17T07:58:28.611Z,33.77
2023-04-17T08:00:54.983Z,33.93
2023-04-17T08:03:22.368Z,33.70
2023-04-17T08:05:48.883Z,33.69
2023-04-17T08:08:16.096Z,33.71
2023-04-17T08:10:42.431Z,33.60
2023-04-17T08:13:08.789Z,33.64
2023-04-17T08:15:35.101Z,33.31
2023-04-17T08:18:01.538Z,33.30
2023-04-17T08:20:27.954Z,33.33
2023-04-17T08:22:54.285Z,33.33
2023-04-17T08:25:20.630Z,33.11
2023-04-17T08:27:47.044Z,33.23
2023-04-17T08:30:16.148Z,32.92
2023-04-17T08:32:45.279Z,32.87
2023-04-17T08:35:12.009Z,33.00
2023-04-17T08:37:38.609Z,32.82
2023-04-17T08:40:06.226Z,32.69
2023-04-17T08:42:34.715Z,32.59
2023-04-17T08:45:01.842Z,32.57
2023-04-17T08:47:28.471Z,32.47
2023-04-17T08:49:55.951Z,32.41
2023-04-17T08:52:22.269Z,32.23
2023-04-17T08:54:51.047Z,32.21
2023-04-17T08:57:17.694Z,32.20
2023-04-17T08:59:45.597Z,32.23
2023-04-17T09:02:12.529Z,32.18
2023-04-17T09:04:42.520Z,32.24
2023-04-17T09:07:10.463Z,32.33
2023-04-17T09:09:55.557Z,32.20
2023-04-17T09:12:25.041Z,32.32
2023-04-17T09:14:51.384Z,32.16
2023-04-17T09:17:18.465Z,32.09
2023-04-17T09:20:04.396Z,31.75
2023-04-17T09:22:31.046Z,31.90
2023-04-17T09:24:57.828Z,31.91
2023-04-17T09:27:24.674Z,32.07
2023-04-17T09:29:57.597Z,31.83
2023-04-17T09:32:23.944Z,32.11
2023-04-17T09:34:50.599Z,31.82
2023-04-17T09:37:16.957Z,32.01
2023-04-17T09:40:15.515Z,31.68
2023-04-17T09:43:00.951Z,31.79
2023-04-17T09:45:33.320Z,31.89
2023-04-17T09:48:01.064Z,32.03
2023-04-17T09:50:27.544Z,32.28
2023-04-17T09:52:54.426Z,32.29
2023-04-17T09:55:24.154Z,32.33
2023-04-17T09:57:51.467Z,32.11
2023-04-17T10:00:18.548Z,32.29
2023-04-17T10:02:45.089Z,32.10
2023-04-17T10:05:11.772Z,32.13
2023-04-17T10:07:38.956Z,32.31
2023-04-17T10:10:09.272Z,32.09
2023-04-17T10:12:36.847Z,32.17
2023-04-17T10:15:03.295Z,32.11
2023-04-17T10:17:31.597Z,32.08
2023-04-17T10:20:23.078Z,31.99
2023-04-17T10:22:54.216Z,31.67
2023-04-17T10:25:22.121Z,31.79
2023-04-17T10:27:49.310Z,31.64
2023-04-17T10:30:16.172Z,31.89
2023-04-17T10:32:44.379Z,31.98
2023-04-17T10:35:16.838Z,30.79
2023-04-17T10:37:52.277Z,31.27
2023-04-17T10:40:22.378Z,31.69
2023-04-17T10:43:06.948Z,31.54
2023-04-17T10:45:52.165Z,31.80
2023-04-17T10:48:22.135Z,31.45
2023-04-17T10:50:48.521Z,31.47
2023-04-17T10:53:33.326Z,31.50
2023-04-17T10:55:59.653Z,31.56
2023-04-17T10:58:31.710Z,31.58
2023-04-17T11:01:00.319Z,31.39
2023-04-17T11:03:27.121Z,31.21
2023-04-17T11:05:53.580Z,31.35
2023-04-17T11:08:20.210Z,31.43
2023-04-17T11:10:46.600Z,31.26
2023-04-17T11:13:12.923Z,31.09
2023-04-17T11:15:39.389Z,31.11
2023-04-17T11:18:06.232Z,31.29
2023-04-17T11:20:32.951Z,31.37
2023-04-17T11:23:02.552Z,31.33
2023-04-17T11:25:31.358Z,31.35
2023-04-17T11:27:57.852Z,31.30
2023-04-17T11:30:25.366Z,31.26
2023-04-17T11:32:51.985Z,30.94
2023-04-17T11:35:21.088Z,31.11
2023-04-17T11:38:06.006Z,31.13
2023-04-17T11:40:32.323Z,31.05
2023-04-17T11:43:03.010Z,31.03
2023-04-17T11:45:31.439Z,31.37
2023-04-17T11:47:57.805Z,31.32
2023-04-17T11:50:28.012Z,31.26
2023-04-17T11:52:56.430Z,31.50
2023-04-17T11:55:22.899Z,31.54
2023-04-17T11:57:51.317Z,31.50
2023-04-17T12:00:17.942Z,31.49
2023-04-17T12:02:44.409Z,31.27
2023-04-17T12:05:14.170Z,31.52
2023-04-17T12:07:40.601Z,31.68
2023-04-17T12:10:07.947Z,31.76
2023-04-17T12:12:34.265Z,31.17
2023-04-17T12:15:01.080Z,31.52
2023-04-17T12:17:27.441Z,31.48
2023-04-17T12:19:53.799Z,31.89
2023-04-17T12:22:20.259Z,32.44
2023-04-17T12:24:46.580Z,32.45
2023-04-17T12:27:12.929Z,32.83
2023-04-17T12:29:44.350Z,32.83
2023-04-17T12:32:11.547Z,32.67
2023-04-17T12:34:38.017Z,32.66
2023-04-17T12:37:04.382Z,32.81
2023-04-17T12:39:30.723Z,32.69
2023-04-17T12:41:57.048Z,32.49
2023-04-17T12:44:23.388Z,32.73
2023-04-17T12:46:49.694Z,32.72
2023-04-17T12:49:16.027Z,32.54
2023-04-17T12:51:42.614Z,32.82
2023-04-17T12:54:08.945Z,32.52
2023-04-17T12:56:35.306Z,32.74
2023-04-17T12:59:03.084Z,32.49
2023-04-17T13:01:29.859Z,32.84
2023-04-17T13:03:56.564Z,32.82
2023-04-17T13:06:23.084Z,32.86
2023-04-17T13:08:49.843Z,32.86
2023-04-17T13:11:16.345Z,32.90
2023-04-17T13:13:42.673Z,32.98
2023-04-17T13:16:09.442Z,32.88
2023-04-17T13:18:36.014Z,32.86
2023-04-17T13:21:02.328Z,32.52
2023-04-17T13:23:28.777Z,32.79
2023-04-17T13:25:55.287Z,32.62
2023-04-17T13:28:21.637Z,32.96
2023-04-17T13:30:48.026Z,33.07
2023-04-17T13:33:14.360Z,33.05
2023-04-17T13:35:41.052Z,33.06
2023-04-17T13:38:07.430Z,32.96
2023-04-17T13:40:33.749Z,32.91
2023-04-17T13:43:00.486Z,32.76
2023-04-17T13:45:26.868Z,32.68
2023-04-17T13:47:53.243Z,32.78
2023-04-17T13:50:19.578Z,32.70
2023-04-17T13:52:45.897Z,32.58
2023-04-17T13:55:14.660Z,32.61
2023-04-17T13:57:41.088Z,32.73
2023-04-17T14:00:07.733Z,32.68
2023-04-17T14:02:34.632Z,32.80
2023-04-17T14:05:01.212Z,32.70
2023-04-17T14:07:27.609Z,32.75
2023-04-17T14:09:53.993Z,32.75
2023-04-17T14:12:21.621Z,32.65
2023-04-17T14:14:48.099Z,32.73
2023-04-17T14:17:14.478Z,32.67
2023-04-17T14:19:40.833Z,32.70
2023-04-17T14:22:07.160Z,32.51
2023-04-17T14:24:33.506Z,32.61
2023-04-17T14:27:02.031Z,32.54
2023-04-17T14:29:28.437Z,32.60
2023-04-17T14:31:54.972Z,32.38
2023-04-17T14:34:21.412Z,32.06
2023-04-17T14:36:48.645Z,32.28
2023-04-17T14:39:15.214Z,31.98
2023-04-17T14:41:41.739Z,32.00
2023-04-17T14:44:08.095Z,32.00
2023-04-17T14:46:34.462Z,32.11
2023-04-17T14:49:00.832Z,32.78
2023-04-17T14:51:27.435Z,32.52
2023-04-17T14:53:53.854Z,32.43
2023-04-17T14:56:21.331Z,32.45
2023-04-17T14:58:47.705Z,32.35
2023-04-17T15:01:14.097Z,32.21
2023-04-17T15:03:41.050Z,32.46
2023-04-17T15:06:08.801Z,32.42
2023-04-17T15:08:35.217Z,32.39
2023-04-17T15:11:01.534Z,32.33
2023-04-17T15:13:27.837Z,32.25
2023-04-17T15:15:55.141Z,32.32
2023-04-17T15:18:21.457Z,32.39
2023-04-17T15:20:47.796Z,32.45
2023-04-17T15:23:15.361Z,32.35
2023-04-17T15:25:41.904Z,32.49
2023-04-17T15:28:08.667Z,32.37
2023-04-17T15:30:35.101Z,32.46
2023-04-17T15:33:01.464Z,32.21
2023-04-17T15:35:27.872Z,32.29
2023-04-17T15:37:54.218Z,32.42
2023-04-17T15:40:20.929Z,32.46
2023-04-17T15:42:47.237Z,32.40
2023-04-17T15:45:13.577Z,32.23
2023-04-17T15:47:39.945Z,32.57
2023-04-17T15:50:06.672Z,32.56
2023-04-17T15:52:33.045Z,32.74
2023-04-17T15:54:59.374Z,32.58
2023-04-17T15:57:25.827Z,32.72
2023-04-17T15:59:52.230Z,32.61
2023-04-17T16:02:18.893Z,32.52
2023-04-17T16:04:45.387Z,32.68
2023-04-17T16:07:12.161Z,32.61
2023-04-17T16:09:39.668Z,32.32
2023-04-17T16:12:08.641Z,32.45
2023-04-17T16:14:36.043Z,32.57
2023-04-17T16:17:02.739Z,32.51
2023-04-17T16:19:29.094Z,32.59
2023-04-17T16:21:56.820Z,32.71
2023-04-17T16:24:26.003Z,32.65
2023-04-17T16:26:57.124Z,32.53
2023-04-17T16:29:26.224Z,32.77
2023-04-17T16:31:53.301Z,32.73
2023-04-17T16:34:20.795Z,32.61
2023-04-17T16:36:47.381Z,32.73
2023-04-17T16:39:14.422Z,32.70
2023-04-17T16:41:41.062Z,32.59
2023-04-17T16:44:07.407Z,32.63
2023-04-17T16:46:45.710Z,32.72
2023-04-17T16:49:18.403Z,32.64
2023-04-17T16:51:44.810Z,32.61
2023-04-17T16:54:11.770Z,32.60
2023-04-17T16:56:38.307Z,32.66
2023-04-17T16:59:05.027Z,32.51
2023-04-17T17:01:34.262Z,32.55
2023-04-17T17:04:00.646Z,32.46
2023-04-17T17:06:27.198Z,32.63
2023-04-17T17:08:55.237Z,32.75
2023-04-17T17:11:21.943Z,32.45
2023-04-17T17:13:49.176Z,32.82
2023-04-17T17:16:15.991Z,32.64
2023-04-17T17:18:42.396Z,32.46
2023-04-17T17:21:08.966Z,32.56
2023-04-17T17:23:35.277Z,32.52
2023-04-17T17:26:01.626Z,32.50
2023-04-17T17:28:27.945Z,32.55
2023-04-17T17:31:01.427Z,32.55
2023-04-17T17:33:27.782Z,32.46
2023-04-17T17:35:54.111Z,32.58
2023-04-17T17:38:20.457Z,32.56
2023-04-17T17:40:47.051Z,32.48
2023-04-17T17:43:13.379Z,32.26
2023-04-17T17:45:39.741Z,32.49
2023-04-17T17:48:06.101Z,32.30
2023-04-17T17:50:32.455Z,32.26
2023-04-17T17:52:59.115Z,32.30
2023-04-17T17:55:25.647Z,32.47
2023-04-17T17:57:51.964Z,32.32
2023-04-17T18:00:18.412Z,32.38
2023-04-17T18:02:44.869Z,32.54
2023-04-17T18:05:11.343Z,32.40
2023-04-17T18:07:37.663Z,32.28
2023-04-17T18:10:04.203Z,32.46
2023-04-17T18:12:30.527Z,32.33
2023-04-17T18:14:56.875Z,32.40
2023-04-17T18:17:23.246Z,32.10
2023-04-17T18:19:49.608Z,32.18
2023-04-17T18:22:16.126Z,32.29
2023-04-17T18:24:42.605Z,32.24
2023-04-17T18:27:08.930Z,32.38
2023-04-17T18:29:35.381Z,32.27
2023-04-17T18:32:01.697Z,32.29
2023-04-17T18:34:28.018Z,32.19
2023-04-17T18:36:54.547Z,32.29
2023-04-17T18:39:20.913Z,32.27
2023-04-17T18:41:47.322Z,32.15
2023-04-17T18:44:14.363Z,32.43
2023-04-17T18:46:41.150Z,32.08
2023-04-17T18:49:07.537Z,32.29
2023-04-17T18:51:33.870Z,32.07
2023-04-17T18:54:00.312Z,32.01
2023-04-17T18:56:26.704Z,31.91
2023-04-17T18:58:53.035Z,31.98
2023-04-17T19:01:19.540Z,31.87
2023-04-17T19:03:46.185Z,32.02
2023-04-17T19:06:12.508Z,31.76
2023-04-17T19:08:39.507Z,32.02
2023-04-17T19:11:06.042Z,32.01
2023-04-17T19:13:32.400Z,32.05
2023-04-17T19:15:58.758Z,32.08
2023-04-17T19:18:25.092Z,32.16
2023-04-17T19:20:51.438Z,32.08
2023-04-17T19:23:17.786Z,32.07
2023-04-17T19:25:44.159Z,31.92
2023-04-17T19:28:10.904Z,32.04
2023-04-17T19:30:37.683Z,31.90
2023-04-17T19:33:04.105Z,32.04
2023-04-17T19:35:30.500Z,31.98
2023-04-17T19:37:56.829Z,32.04
2023-04-17T19:40:25.550Z,32.14
2023-04-17T19:42:52.250Z,32.42
2023-04-17T19:45:20.596Z,32.55
2023-04-17T19:47:49.263Z,32.29
2023-04-17T19:50:15.709Z,32.09
2023-04-17T19:52:43.095Z,32.30
2023-04-17T19:55:09.663Z,32.58
2023-04-17T19:57:36.453Z,32.29
2023-04-17T20:00:02.920Z,32.11
2023-04-17T20:02:29.349Z,32.35
2023-04-17T20:04:55.789Z,32.24
2023-04-17T20:07:22.101Z,32.18
2023-04-17T20:09:48.458Z,31.92
2023-04-17T20:12:14.781Z,31.95
2023-04-17T20:14:41.125Z,31.93
2023-04-17T20:17:07.513Z,31.75
2023-04-17T20:19:33.880Z,31.59
2023-04-17T20:22:00.218Z,31.48
2023-04-17T20:24:26.544Z,31.76
2023-04-17T20:26:53.164Z,31.45
2023-04-17T20:29:21.259Z,31.59
2023-04-17T20:31:47.662Z,31.84
2023-04-17T20:34:14.066Z,31.78
2023-04-17T20:36:40.384Z,31.72
2023-04-17T20:39:07.196Z,31.64
2023-04-17T20:41:33.526Z,31.90
2023-04-17T20:44:00.009Z,31.89
2023-04-17T20:46:26.989Z,31.79
2023-04-17T20:48:53.390Z,31.79
2023-04-17T20:51:20.819Z,32.00
2023-04-17T20:53:47.136Z,32.02
2023-04-17T20:56:13.523Z,31.92
2023-04-17T20:58:39.990Z,31.83
2023-04-17T21:01:06.323Z,31.75
2023-04-17T21:03:32.912Z,32.07
2023-04-17T21:05:59.872Z,32.00
2023-04-17T21:08:26.363Z,31.98
2023-04-17T21:10:52.693Z,31.78
2023-04-17T21:13:19.010Z,32.01
2023-04-17T21:15:45.429Z,31.86
2023-04-17T21:18:11.838Z,32.06
2023-04-17T21:20:38.166Z,32.11
2023-04-17T21:23:04.507Z,32.02
2023-04-17T21:25:30.836Z,31.87
2023-04-17T21:27:57.159Z,32.01
2023-04-17T21:30:25.841Z,32.18
2023-04-17T21:32:53.547Z,32.04
2023-04-17T21:35:19.935Z,32.32
2023-04-17T21:37:46.245Z,32.23
2023-04-17T21:40:12.967Z,32.16
2023-04-17T21:42:39.298Z,32.21
2023-04-17T21:45:05.850Z,32.31
2023-04-17T21:47:32.822Z,32.17
2023-04-17T21:50:00.197Z,32.21
2023-04-17T21:52:26.787Z,32.14
2023-04-17T21:54:53.130Z,32.34
2023-04-17T21:57:19.435Z,32.23
2023-04-17T21:59:45.766Z,32.22
2023-04-17T22:02:12.234Z,32.37
2023-04-17T22:04:38.721Z,32.46
2023-04-17T22:07:05.544Z,32.33
2023-04-17T22:09:31.887Z,32.38
2023-04-17T22:11:58.640Z,32.15
2023-04-17T22:14:25.013Z,32.15
2023-04-17T22:16:51.390Z,32.37
2023-04-17T22:19:17.741Z,32.23
2023-04-17T22:21:44.101Z,32.29
2023-04-17T22:24:11.389Z,32.45
2023-04-17T22:26:37.843Z,32.51
2023-04-17T22:29:04.156Z,32.58
2023-04-17T22:31:30.580Z,32.63
2023-04-17T22:33:57.269Z,32.66
2023-04-17T22:36:23.574Z,32.40
2023-04-17T22:38:49.886Z,32.20
2023-04-17T22:41:16.207Z,32.18
2023-04-17T22:43:42.559Z,32.60
2023-04-17T22:46:08.905Z,32.56
2023-04-17T22:48:35.213Z,32.67
2023-04-17T22:51:02.315Z,32.66
2023-04-17T22:53:28.947Z,32.57
2023-04-17T22:56:05.023Z,32.67
2023-04-17T22:58:31.771Z,32.58
2023-04-17T23:00:58.294Z,32.57
2023-04-17T23:03:24.648Z,32.36
2023-04-17T23:05:53.037Z,32.49
2023-04-17T23:08:19.352Z,32.71
2023-04-17T23:10:45.669Z,32.12
2023-04-17T23:13:11.981Z,32.35
2023-04-17T23:15:38.641Z,32.46
2023-04-17T23:18:05.014Z,32.33
2023-04-17T23:20:31.364Z,32.57
2023-04-17T23:22:57.664Z,32.77
2023-04-17T23:25:23.993Z,32.53
2023-04-17T23:27:50.316Z,32.82
2023-04-17T23:30:16.675Z,32.71
2023-04-17T23:32:43.249Z,32.67
2023-04-17T23:35:09.680Z,32.67
2023-04-17T23:37:36.309Z,32.77
2023-04-17T23:40:02.695Z,32.90
2023-04-17T23:42:29.271Z,32.64
2023-04-17T23:44:55.608Z,32.74
2023-04-17T23:47:21.947Z,32.92
2023-04-17T23:49:48.307Z,32.76
2023-04-17T23:52:14.622Z,32.72
2023-04-17T23:54:40.982Z,32.81
2023-04-17T23:57:07.322Z,32.92
2023-04-17T23:59:33.644Z,32.84
